GIA6111 WAHQ-OEMA
Flight info
| Callsign | GIA6111 |
|---|---|
| Flight time | N/A |
| Altitude | 32000 |
| Route | PURWO W17N KIDET M766 ISBIX/N0476F340 M766 KAT P570 TVM UL425 ANODA/N0471F360 UL425 ASPUX L425 GOBRO DCT ALNUG DCT KITUB Y511 ELONU |
| Aircraft | A333/H-SDE3GHIJ2J3J5M1RVWXY/LB2D1 |
Departure
| Time | N/A |
|---|---|
| Airport | Adisoemarmo International Airport (WAHQ) |
Arrival
| Time | 2026-04-25 13:19 |
|---|---|
| Airport | Prince Mohammad Bin Abdulaziz Airport (OEMA) |
| Time | Latitude | Longitude | Altitude | Speed | Heading |
|---|---|---|---|---|---|
| 2026-04-25 12:22 | 22.94072 | 44.68998 | 32058 ft | 408 kts | 275° |
| 2026-04-25 12:22 | 22.94549 | 44.65577 | 31997 ft | 409 kts | 286° |
| 2026-04-25 12:23 | 22.96450 | 44.59721 | 32045 ft | 410 kts | 288° |
| 2026-04-25 12:23 | 22.98289 | 44.53820 | 32057 ft | 408 kts | 288° |
| 2026-04-25 12:24 | 23.00105 | 44.47940 | 31999 ft | 409 kts | 288° |
| 2026-04-25 12:24 | 23.01923 | 44.42037 | 32003 ft | 409 kts | 288° |
| 2026-04-25 12:25 | 23.03727 | 44.36172 | 32053 ft | 408 kts | 287° |
| 2026-04-25 12:25 | 23.05530 | 44.30299 | 32068 ft | 407 kts | 287° |
| 2026-04-25 12:26 | 23.07298 | 44.24533 | 32026 ft | 408 kts | 287° |
| 2026-04-25 12:26 | 23.09106 | 44.18628 | 32048 ft | 408 kts | 287° |
| 2026-04-25 12:27 | 23.10903 | 44.12745 | 32078 ft | 406 kts | 287° |
| 2026-04-25 12:27 | 23.12677 | 44.06939 | 32042 ft | 406 kts | 287° |
| 2026-04-25 12:28 | 23.14434 | 44.01176 | 32039 ft | 407 kts | 287° |
| 2026-04-25 12:28 | 23.16229 | 43.95278 | 32075 ft | 405 kts | 287° |
| 2026-04-25 12:29 | 23.18005 | 43.89436 | 32059 ft | 404 kts | 287° |
| 2026-04-25 12:29 | 23.19789 | 43.83557 | 32027 ft | 406 kts | 287° |
| 2026-04-25 12:30 | 23.21572 | 43.77666 | 32059 ft | 405 kts | 287° |
| 2026-04-25 12:30 | 23.23336 | 43.71838 | 32064 ft | 403 kts | 287° |
| 2026-04-25 12:31 | 23.25105 | 43.65986 | 32020 ft | 404 kts | 287° |
| 2026-04-25 12:31 | 23.26865 | 43.60153 | 32029 ft | 405 kts | 287° |
| 2026-04-25 12:32 | 23.28625 | 43.54310 | 32064 ft | 403 kts | 287° |
| 2026-04-25 12:32 | 23.30382 | 43.48468 | 32034 ft | 403 kts | 287° |
| 2026-04-25 12:33 | 23.32134 | 43.42634 | 32030 ft | 405 kts | 287° |
| 2026-04-25 12:33 | 23.33891 | 43.36776 | 32071 ft | 404 kts | 287° |
| 2026-04-25 12:34 | 23.35640 | 43.30939 | 32077 ft | 403 kts | 286° |
| 2026-04-25 12:34 | 23.37363 | 43.25172 | 32043 ft | 404 kts | 286° |
| 2026-04-25 12:35 | 23.39102 | 43.19348 | 32065 ft | 404 kts | 287° |
| 2026-04-25 12:35 | 23.40840 | 43.13522 | 32081 ft | 403 kts | 286° |
| 2026-04-25 12:36 | 23.42591 | 43.07627 | 32041 ft | 404 kts | 286° |
| 2026-04-25 12:36 | 23.44320 | 43.01796 | 32047 ft | 403 kts | 287° |
| 2026-04-25 12:37 | 23.46047 | 42.95961 | 32079 ft | 403 kts | 286° |
| 2026-04-25 12:37 | 23.47783 | 42.90086 | 32050 ft | 402 kts | 287° |
| 2026-04-25 12:38 | 23.49499 | 42.84276 | 32037 ft | 404 kts | 286° |
| 2026-04-25 12:38 | 23.51230 | 42.78404 | 32064 ft | 404 kts | 285° |
| 2026-04-25 12:39 | 23.52958 | 42.72533 | 32060 ft | 402 kts | 286° |
| 2026-04-25 12:39 | 23.54691 | 42.66649 | 32029 ft | 403 kts | 287° |
| 2026-04-25 12:40 | 23.56415 | 42.60799 | 32054 ft | 405 kts | 286° |
| 2026-04-25 12:40 | 23.58148 | 42.54882 | 32051 ft | 404 kts | 286° |
| 2026-04-25 12:41 | 23.59875 | 42.49005 | 32011 ft | 406 kts | 286° |
| 2026-04-25 12:41 | 23.61599 | 42.43113 | 32020 ft | 406 kts | 285° |
| 2026-04-25 12:42 | 23.63330 | 42.37189 | 32053 ft | 406 kts | 286° |
| 2026-04-25 12:42 | 23.65063 | 42.31256 | 32049 ft | 408 kts | 285° |
| 2026-04-25 12:43 | 23.66786 | 42.25325 | 32002 ft | 409 kts | 285° |
| 2026-04-25 12:43 | 23.69364 | 42.16435 | 32012 ft | 408 kts | 285° |
| 2026-04-25 12:44 | 23.71084 | 42.10482 | 32014 ft | 410 kts | 285° |
| 2026-04-25 12:45 | 23.73659 | 42.01565 | 32004 ft | 408 kts | 285° |
| 2026-04-25 12:45 | 23.76250 | 41.92598 | 32004 ft | 409 kts | 285° |
| 2026-04-25 12:46 | 23.77971 | 41.86637 | 32020 ft | 411 kts | 284° |
| 2026-04-25 12:46 | 23.79680 | 41.80695 | 32055 ft | 409 kts | 285° |
| 2026-04-25 12:47 | 23.81407 | 41.74706 | 32020 ft | 408 kts | 285° |
| 2026-04-25 12:47 | 23.83111 | 41.68767 | 32003 ft | 408 kts | 285° |
| 2026-04-25 12:48 | 23.84815 | 41.62832 | 32031 ft | 409 kts | 284° |
| 2026-04-25 12:48 | 23.86523 | 41.56850 | 32012 ft | 409 kts | 284° |
| 2026-04-25 12:49 | 23.88225 | 41.50876 | 31991 ft | 410 kts | 284° |
| 2026-04-25 12:49 | 23.89909 | 41.44940 | 32027 ft | 409 kts | 285° |
| 2026-04-25 12:50 | 23.91598 | 41.38986 | 32009 ft | 407 kts | 284° |
| 2026-04-25 12:50 | 23.93278 | 41.33054 | 31998 ft | 408 kts | 284° |
| 2026-04-25 12:51 | 23.94913 | 41.27292 | 32018 ft | 407 kts | 284° |
| 2026-04-25 12:51 | 23.96583 | 41.21392 | 32028 ft | 407 kts | 284° |
| 2026-04-25 12:52 | 23.98259 | 41.15465 | 31989 ft | 408 kts | 284° |
| 2026-04-25 12:52 | 23.99930 | 41.09537 | 31995 ft | 407 kts | 284° |
| 2026-04-25 12:53 | 24.01602 | 41.03606 | 32022 ft | 407 kts | 284° |
| 2026-04-25 12:53 | 24.03276 | 40.97656 | 31974 ft | 408 kts | 284° |
| 2026-04-25 12:54 | 24.04950 | 40.91700 | 31994 ft | 408 kts | 284° |
| 2026-04-25 12:54 | 24.06627 | 40.85720 | 32029 ft | 408 kts | 284° |
| 2026-04-25 12:55 | 24.08021 | 40.80738 | 31943 ft | 406 kts | 284° |
| 2026-04-25 12:55 | 24.09121 | 40.76808 | 31437 ft | 398 kts | 284° |
| 2026-04-25 12:55 | 24.09925 | 40.73936 | 31211 ft | 394 kts | 284° |
| 2026-04-25 12:56 | 24.10737 | 40.71025 | 30983 ft | 392 kts | 284° |
| 2026-04-25 12:56 | 24.11509 | 40.68249 | 30734 ft | 391 kts | 284° |
| 2026-04-25 12:56 | 24.12325 | 40.65318 | 30479 ft | 390 kts | 284° |
| 2026-04-25 12:56 | 24.13115 | 40.62489 | 30228 ft | 390 kts | 284° |
| 2026-04-25 12:57 | 24.13914 | 40.59616 | 29977 ft | 390 kts | 284° |
| 2026-04-25 12:57 | 24.14711 | 40.56746 | 29726 ft | 389 kts | 284° |
| 2026-04-25 12:57 | 24.15497 | 40.53921 | 29475 ft | 389 kts | 284° |
| 2026-04-25 12:57 | 24.16223 | 40.51046 | 29215 ft | 387 kts | 278° |
| 2026-04-25 12:58 | 24.16573 | 40.48133 | 28869 ft | 388 kts | 276° |
| 2026-04-25 12:58 | 24.16936 | 40.45134 | 28249 ft | 388 kts | 276° |
| 2026-04-25 12:58 | 24.17283 | 40.42254 | 27685 ft | 377 kts | 275° |
| 2026-04-25 12:58 | 24.17620 | 40.39439 | 27139 ft | 363 kts | 276° |
| 2026-04-25 12:59 | 24.17946 | 40.36715 | 26661 ft | 356 kts | 275° |
| 2026-04-25 12:59 | 24.18268 | 40.34017 | 26254 ft | 357 kts | 275° |
| 2026-04-25 12:59 | 24.18591 | 40.31302 | 25835 ft | 361 kts | 275° |
| 2026-04-25 12:59 | 24.18915 | 40.28574 | 25418 ft | 361 kts | 274° |
| 2026-04-25 13:00 | 24.19246 | 40.25799 | 24959 ft | 363 kts | 275° |
| 2026-04-25 13:00 | 24.19462 | 40.23977 | 24653 ft | 362 kts | 275° |
| 2026-04-25 13:00 | 24.19895 | 40.20321 | 24013 ft | 361 kts | 274° |
| 2026-04-25 13:00 | 24.20219 | 40.17594 | 23509 ft | 361 kts | 274° |
| 2026-04-25 13:01 | 24.20541 | 40.14861 | 22970 ft | 359 kts | 274° |
| 2026-04-25 13:01 | 24.20862 | 40.12132 | 22497 ft | 363 kts | 274° |
| 2026-04-25 13:01 | 24.21190 | 40.09347 | 22031 ft | 366 kts | 274° |
| 2026-04-25 13:01 | 24.21517 | 40.06569 | 21487 ft | 364 kts | 274° |
| 2026-04-25 13:02 | 24.21842 | 40.03792 | 20996 ft | 360 kts | 274° |
| 2026-04-25 13:02 | 24.22039 | 40.02116 | 20698 ft | 358 kts | 274° |
| 2026-04-25 13:02 | 24.22151 | 40.01167 | 20531 ft | 357 kts | 274° |
| 2026-04-25 13:02 | 24.22461 | 39.98513 | 20379 ft | 344 kts | 274° |
| 2026-04-25 13:03 | 24.22765 | 39.95929 | 20372 ft | 328 kts | 273° |
| 2026-04-25 13:03 | 24.23049 | 39.93479 | 20220 ft | 317 kts | 273° |
| 2026-04-25 13:03 | 24.23559 | 39.91167 | 20083 ft | 313 kts | 290° |
| 2026-04-25 13:03 | 24.24862 | 39.89250 | 19951 ft | 316 kts | 311° |
| 2026-04-25 13:04 | 24.26758 | 39.87935 | 19519 ft | 329 kts | 334° |
| 2026-04-25 13:04 | 24.29035 | 39.87447 | 19160 ft | 334 kts | 348° |
| 2026-04-25 13:04 | 24.31342 | 39.87047 | 18753 ft | 332 kts | 344° |
| 2026-04-25 13:04 | 24.33600 | 39.86588 | 18358 ft | 331 kts | 343° |
| 2026-04-25 13:05 | 24.35889 | 39.86111 | 17970 ft | 330 kts | 343° |
| 2026-04-25 13:05 | 24.38155 | 39.85635 | 17564 ft | 330 kts | 344° |
| 2026-04-25 13:05 | 24.40466 | 39.85151 | 17154 ft | 330 kts | 344° |
| 2026-04-25 13:05 | 24.42703 | 39.84682 | 16759 ft | 329 kts | 343° |
| 2026-04-25 13:06 | 24.44982 | 39.84203 | 16351 ft | 329 kts | 344° |
| 2026-04-25 13:06 | 24.47247 | 39.83723 | 15942 ft | 329 kts | 343° |
| 2026-04-25 13:06 | 24.49508 | 39.83237 | 15540 ft | 329 kts | 343° |
| 2026-04-25 13:06 | 24.51748 | 39.82755 | 15133 ft | 329 kts | 343° |
| 2026-04-25 13:07 | 24.53986 | 39.82275 | 15035 ft | 318 kts | 343° |
| 2026-04-25 13:07 | 24.56144 | 39.81811 | 14916 ft | 308 kts | 343° |
| 2026-04-25 13:07 | 24.58262 | 39.81360 | 14576 ft | 308 kts | 343° |
| 2026-04-25 13:07 | 24.60399 | 39.80906 | 14200 ft | 309 kts | 343° |
| 2026-04-25 13:08 | 24.62520 | 39.80456 | 13807 ft | 310 kts | 343° |
| 2026-04-25 13:08 | 24.64645 | 39.80006 | 13413 ft | 312 kts | 344° |
| 2026-04-25 13:08 | 24.66799 | 39.79548 | 13026 ft | 313 kts | 344° |
| 2026-04-25 13:08 | 24.68953 | 39.79091 | 12628 ft | 314 kts | 343° |
| 2026-04-25 13:09 | 24.71113 | 39.78632 | 12232 ft | 315 kts | 344° |
| 2026-04-25 13:09 | 24.73278 | 39.78171 | 11847 ft | 315 kts | 344° |
| 2026-04-25 13:09 | 24.75426 | 39.77716 | 11474 ft | 315 kts | 344° |
| 2026-04-25 13:09 | 24.77619 | 39.77249 | 11103 ft | 314 kts | 345° |
| 2026-04-25 13:10 | 24.79763 | 39.76794 | 10745 ft | 313 kts | 345° |
| 2026-04-25 13:10 | 24.81913 | 39.76337 | 10388 ft | 309 kts | 345° |
| 2026-04-25 13:10 | 24.84023 | 39.75889 | 10071 ft | 302 kts | 345° |
| 2026-04-25 13:10 | 24.86073 | 39.75453 | 9789 ft | 296 kts | 345° |
| 2026-04-25 13:11 | 24.88088 | 39.75024 | 9506 ft | 290 kts | 345° |
| 2026-04-25 13:11 | 24.89983 | 39.74363 | 9224 ft | 277 kts | 324° |
| 2026-04-25 13:11 | 24.91332 | 39.72944 | 8996 ft | 258 kts | 296° |
| 2026-04-25 13:11 | 24.91935 | 39.71136 | 8654 ft | 251 kts | 275° |
| 2026-04-25 13:12 | 24.91937 | 39.69255 | 8374 ft | 244 kts | 262° |
| 2026-04-25 13:12 | 24.91692 | 39.67392 | 8079 ft | 240 kts | 258° |
| 2026-04-25 13:12 | 24.91281 | 39.65610 | 7796 ft | 236 kts | 243° |
| 2026-04-25 13:12 | 24.90653 | 39.64660 | 7610 ft | 232 kts | 223° |
| 2026-04-25 13:13 | 24.88670 | 39.63800 | 7260 ft | 239 kts | 183° |
| 2026-04-25 13:13 | 24.87010 | 39.64086 | 7015 ft | 239 kts | 173° |
| 2026-04-25 13:13 | 24.85367 | 39.64442 | 6740 ft | 239 kts | 173° |
| 2026-04-25 13:13 | 24.83732 | 39.64799 | 6647 ft | 236 kts | 173° |
| 2026-04-25 13:14 | 24.82088 | 39.65154 | 6561 ft | 236 kts | 173° |
| 2026-04-25 13:14 | 24.80477 | 39.65499 | 6408 ft | 228 kts | 173° |
| 2026-04-25 13:14 | 24.78937 | 39.65828 | 6131 ft | 223 kts | 173° |
| 2026-04-25 13:14 | 24.77424 | 39.66150 | 5885 ft | 218 kts | 173° |
| 2026-04-25 13:15 | 24.75930 | 39.66467 | 5616 ft | 213 kts | 173° |
| 2026-04-25 13:15 | 24.74490 | 39.66772 | 5346 ft | 208 kts | 174° |
| 2026-04-25 13:15 | 24.73062 | 39.67077 | 5068 ft | 204 kts | 173° |
| 2026-04-25 13:15 | 24.71700 | 39.67366 | 4801 ft | 193 kts | 173° |
| 2026-04-25 13:16 | 24.70410 | 39.67638 | 4647 ft | 183 kts | 173° |
| 2026-04-25 13:16 | 24.69162 | 39.67903 | 4373 ft | 177 kts | 173° |
| 2026-04-25 13:16 | 24.67951 | 39.68159 | 4134 ft | 178 kts | 173° |
| 2026-04-25 13:16 | 24.66742 | 39.68416 | 3909 ft | 176 kts | 173° |
| 2026-04-25 13:17 | 24.65550 | 39.68668 | 3705 ft | 165 kts | 173° |
| 2026-04-25 13:17 | 24.64434 | 39.68902 | 3464 ft | 161 kts | 173° |
| 2026-04-25 13:17 | 24.63339 | 39.69133 | 3259 ft | 160 kts | 172° |
| 2026-04-25 13:17 | 24.62229 | 39.69367 | 3054 ft | 160 kts | 173° |
| 2026-04-25 13:18 | 24.61119 | 39.69604 | 2851 ft | 161 kts | 172° |
| 2026-04-25 13:18 | 24.60016 | 39.69845 | 2642 ft | 164 kts | 173° |
| 2026-04-25 13:18 | 24.58890 | 39.70069 | 2440 ft | 162 kts | 173° |
| 2026-04-25 13:18 | 24.57767 | 39.70300 | 2241 ft | 164 kts | 171° |
| 2026-04-25 13:19 | 24.56681 | 39.70526 | 2180 ft | 143 kts | 168° |
| 2026-04-25 13:19 | 24.55879 | 39.70701 | 2178 ft | 91 kts | 169° |
| 2026-04-25 13:19 | 24.55435 | 39.70797 | 2176 ft | 27 kts | 156° |
| 2026-04-25 13:19 | 24.55344 | 39.70848 | 2176 ft | 19 kts | 148° |
| 2026-04-25 13:20 | 24.55217 | 39.70966 | 2175 ft | 5 kts | 117° |
| 2026-04-25 13:20 | 24.55215 | 39.71002 | 2175 ft | 4 kts | 83° |
| 2026-04-25 13:20 | 24.55220 | 39.71036 | 2175 ft | 4 kts | 82° |
| 2026-04-25 13:20 | 24.55223 | 39.71066 | 2175 ft | 3 kts | 82° |
| 2026-04-25 13:21 | 24.55227 | 39.71095 | 2175 ft | 3 kts | 82° |
| 2026-04-25 13:21 | 24.55231 | 39.71120 | 2175 ft | 3 kts | 82° |
| 2026-04-25 13:21 | 24.55235 | 39.71142 | 2175 ft | 2 kts | 72° |
| 2026-04-25 13:21 | 24.55239 | 39.71160 | 2175 ft | 2 kts | 81° |
| 2026-04-25 13:22 | 24.55240 | 39.71176 | 2175 ft | 1 kts | 90° |
| 2026-04-25 13:22 | 24.55238 | 39.71189 | 2175 ft | 1 kts | 100° |
| 2026-04-25 13:22 | 24.55237 | 39.71201 | 2175 ft | 1 kts | 97° |
| 2026-04-25 13:23 | 24.55237 | 39.71225 | 2175 ft | 2 kts | 86° |
| 2026-04-25 13:23 | 24.55239 | 39.71247 | 2175 ft | 3 kts | 83° |
| 2026-04-25 13:23 | 24.55243 | 39.71279 | 2175 ft | 4 kts | 80° |
| 2026-04-25 13:23 | 24.55246 | 39.71296 | 2175 ft | 2 kts | 77° |
| 2026-04-25 13:24 | 24.55250 | 39.71317 | 2175 ft | 2 kts | 78° |
| 2026-04-25 13:24 | 24.55251 | 39.71323 | 2175 ft | 0 kts | 78° |